Terminal Aerodrome Forecast
Issued by NWS

Current Version | Previous Version | Graphics & Text | Print | Product List | Glossary On
Versions: 1 2 3 4 5 6 7 8 9 10 11 12 13 14 15 16 17 18 19 20 21 22 23
000
FTUS41 KRLX 150500
TAFCKB
TAF
KCKB 150524Z 1506/1606 00000KT 1/4SM FG VV001
     FM151200 00000KT 1 1/2SM BR SCT200
     FM151300 00000KT 4SM BR SCT200
     FM151400 VRB03KT P6SM FEW090
     FM160200 00000KT P6SM BKN110=

USA.gov is the U.S. government's official web portal to all federal, state and local government web resources and services.